Time;durP1;ratioP1;P1;durP2;ratioP2;P2;SDS_P1;SDS_P2;PMS_P1;PMS_P2;Temp;Humidity;BMP_temperature;BMP_pressure;BME280_temperature;BME280_humidity;BME280_pressure;Samples;Min_cycle;Max_cycle;Signal;HPM_P1;HPM_P2
2022/09/04 00:00:17;;;;;;;2.75;1.40;;;20.00;50.20;;;;;;9182240;19;20026;-68
2022/09/04 00:03:36;;;;;;;3.42;1.50;;;19.90;50.10;;;;;;9181901;19;20019;-68
2022/09/04 00:06:50;;;;;;;3.25;1.80;;;19.90;50.40;;;;;;9178352;19;20021;-69
2022/09/04 00:10:08;;;;;;;5.43;1.35;;;19.80;50.30;;;;;;9177665;19;20061;-70
2022/09/04 00:13:20;;;;;;;4.47;2.08;;;19.80;50.40;;;;;;9179825;19;20010;-69
2022/09/04 00:16:29;;;;;;;3.72;1.30;;;19.80;50.50;;;;;;9178982;19;20026;-68
2022/09/04 00:19:42;;;;;;;2.58;1.67;;;19.80;50.50;;;;;;9178120;19;20014;-68
2022/09/04 00:22:55;;;;;;;4.20;1.75;;;19.70;50.60;;;;;;9179007;19;20014;-69
2022/09/04 00:26:07;;;;;;;3.97;1.77;;;19.70;50.70;;;;;;9179502;19;20018;-70
2022/09/04 00:29:20;;;;;;;3.63;1.60;;;19.60;50.70;;;;;;9179628;19;20026;-68
2022/09/04 00:32:37;;;;;;;1.80;1.40;;;19.60;50.80;;;;;;9181121;19;20028;-69
2022/09/04 00:35:50;;;;;;;3.50;2.22;;;19.60;50.90;;;;;;9180883;19;20041;-70
2022/09/04 00:38:59;;;;;;;4.47;1.88;;;19.50;50.90;;;;;;9175450;19;20019;-71
2022/09/04 00:42:17;;;;;;;3.10;1.67;;;19.50;51.00;;;;;;9180248;19;20011;-69
2022/09/04 00:45:36;;;;;;;6.68;1.77;;;19.40;51.10;;;;;;9179930;19;20018;-69
2022/09/04 00:49:22;;;;;;;3.85;1.50;;;19.40;51.20;;;;;;9180402;19;20011;-71
2022/09/04 00:53:14;;;;;;;2.95;1.40;;;19.40;51.40;;;;;;9179860;19;20014;-71
2022/09/04 00:56:51;;;;;;;6.35;2.10;;;19.30;51.40;;;;;;9178703;19;20006;-70
2022/09/04 01:00:08;;;;;;;1.90;1.55;;;19.30;51.40;;;;;;9177543;19;20364;-69
2022/09/04 01:03:25;;;;;;;6.05;1.60;;;19.20;51.30;;;;;;9180037;19;20120;-70
2022/09/04 01:06:38;;;;;;;3.17;1.77;;;19.20;51.40;;;;;;9179805;19;20014;-68
2022/09/04 01:09:57;;;;;;;5.00;1.70;;;19.20;51.50;;;;;;9180152;19;20018;-70
2022/09/04 01:13:09;;;;;;;3.00;1.80;;;19.10;51.50;;;;;;9179498;19;20015;-69
2022/09/04 01:16:21;;;;;;;4.22;1.63;;;19.10;51.60;;;;;;9178880;19;20090;-68
2022/09/04 01:19:44;;;;;;;7.50;2.05;;;19.00;51.60;;;;;;9176807;19;20018;-68
2022/09/04 01:23:05;;;;;;;2.33;1.55;;;19.00;51.70;;;;;;9179338;19;20329;-69
2022/09/04 01:26:21;;;;;;;2.60;1.80;;;19.00;51.80;;;;;;9178226;19;20032;-70
2022/09/04 01:29:38;;;;;;;5.55;2.22;;;19.00;51.90;;;;;;9184485;19;20023;-69
2022/09/04 01:32:54;;;;;;;5.45;1.85;;;18.90;51.90;;;;;;9187494;19;20018;-69
2022/09/04 01:36:07;;;;;;;2.95;1.70;;;18.90;51.90;;;;;;9184047;19;20014;-68
2022/09/04 01:39:12;;;;;;;5.95;1.83;;;18.80;52.00;;;;;;9185615;19;20334;-69
2022/09/04 01:42:28;;;;;;;3.28;1.67;;;18.80;52.00;;;;;;9187869;19;20344;-70
2022/09/04 01:45:54;;;;;;;4.32;1.77;;;18.80;52.20;;;;;;9187888;19;20018;-71
2022/09/04 01:49:05;;;;;;;7.57;2.00;;;18.70;52.20;;;;;;9184092;19;20391;-70
2022/09/04 01:52:27;;;;;;;6.13;2.63;;;18.70;52.30;;;;;;9187764;19;20030;-69
2022/09/04 01:55:38;;;;;;;5.05;2.05;;;18.60;52.40;;;;;;9187173;19;20010;-70
2022/09/04 01:58:55;;;;;;;3.13;1.88;;;18.60;52.30;;;;;;9185311;19;20014;-66
2022/09/04 02:02:12;;;;;;;3.15;2.03;;;18.60;52.40;;;;;;9184870;19;20022;-70
2022/09/04 02:05:22;;;;;;;2.90;1.73;;;18.60;52.50;;;;;;9186183;19;20012;-69
2022/09/04 02:08:40;;;;;;;3.40;1.85;;;18.50;52.50;;;;;;9183687;19;20015;-68
2022/09/04 02:11:51;;;;;;;3.22;1.63;;;18.50;52.60;;;;;;9186498;19;20376;-68
2022/09/04 02:15:11;;;;;;;7.25;2.17;;;18.40;52.50;;;;;;9185956;19;20018;-67
2022/09/04 02:18:25;;;;;;;7.93;2.35;;;18.40;52.70;;;;;;9185212;19;20022;-68
2022/09/04 02:21:37;;;;;;;2.35;1.73;;;18.40;52.80;;;;;;9184683;19;20022;-69
2022/09/04 02:24:51;;;;;;;3.42;2.17;;;18.40;52.80;;;;;;9186158;19;20345;-68
2022/09/04 02:28:01;;;;;;;;;;;18.30;52.80;;;;;;9186012;19;20721;-69
2022/09/04 02:31:16;;;;;;;3.42;1.90;;;18.30;52.60;;;;;;9186377;19;19923;-68
2022/09/04 02:34:29;;;;;;;3.70;2.00;;;18.30;52.80;;;;;;9187106;19;20044;-68
2022/09/04 02:37:46;;;;;;;4.15;2.03;;;18.20;52.70;;;;;;9180893;19;20381;-66
2022/09/04 02:40:53;;;;;;;3.50;2.22;;;18.20;53.00;;;;;;9183482;19;20014;-69
2022/09/04 02:44:17;;;;;;;2.78;1.67;;;18.20;52.90;;;;;;9185503;19;20048;-69
2022/09/04 02:47:33;;;;;;;4.13;2.08;;;18.20;53.20;;;;;;9181797;19;20396;-69
2022/09/04 02:50:53;;;;;;;3.47;1.75;;;18.10;53.10;;;;;;9183048;19;20010;-69
2022/09/04 02:54:07;;;;;;;3.90;2.22;;;18.10;53.20;;;;;;9183036;19;20014;-70
2022/09/04 02:57:20;;;;;;;7.22;2.15;;;18.10;53.30;;;;;;9185375;19;20007;-70
2022/09/04 03:00:38;;;;;;;1.92;1.60;;;18.00;53.20;;;;;;9182841;19;20511;-69
2022/09/04 03:03:52;;;;;;;3.90;2.10;;;18.00;53.30;;;;;;9183849;19;20015;-68
2022/09/04 03:07:04;;;;;;;6.18;2.13;;;18.00;53.50;;;;;;9184642;19;20014;-68
2022/09/04 03:10:14;;;;;;;2.97;2.17;;;17.90;53.40;;;;;;9185211;19;20418;-68
2022/09/04 03:13:27;;;;;;;5.38;2.30;;;17.90;53.60;;;;;;9185397;19;20006;-69
2022/09/04 03:16:39;;;;;;;4.60;2.38;;;17.90;53.60;;;;;;9185181;19;20026;-68
2022/09/04 03:19:53;;;;;;;5.80;2.17;;;17.80;53.60;;;;;;9182824;19;20475;-69
2022/09/04 03:23:00;;;;;;;;;;;17.80;53.70;;;;;;9185312;19;20015;-69
2022/09/04 03:26:24;;;;;;;2.92;1.55;;;17.80;53.50;;;;;;9184967;19;19925;-69
2022/09/04 03:29:37;;;;;;;4.47;1.90;;;17.80;53.80;;;;;;9183961;19;20018;-70
2022/09/04 03:32:53;;;;;;;2.55;2.00;;;17.70;53.60;;;;;;9183818;19;20021;-70
2022/09/04 03:36:05;;;;;;;4.97;2.42;;;17.70;53.80;;;;;;9181494;19;20014;-68
2022/09/04 03:39:17;;;;;;;8.40;2.15;;;17.70;53.80;;;;;;9183082;19;20014;-67
2022/09/04 03:42:33;;;;;;;3.92;2.30;;;17.60;53.90;;;;;;9183947;19;20500;-70
2022/09/04 03:45:49;;;;;;;6.95;2.20;;;17.60;54.00;;;;;;9183373;19;20030;-68
2022/09/04 03:49:08;;;;;;;2.22;1.77;;;17.50;54.00;;;;;;9183359;19;20376;-70
2022/09/04 03:52:26;;;;;;;3.33;2.22;;;17.50;54.10;;;;;;9182050;19;20014;-69
2022/09/04 03:55:49;;;;;;;8.65;2.47;;;17.50;54.20;;;;;;9182641;19;20048;-68
2022/09/04 03:59:04;;;;;;;3.72;1.92;;;17.50;54.30;;;;;;9183362;19;20030;-69
2022/09/04 04:02:18;;;;;;;4.25;2.30;;;17.40;54.20;;;;;;9182716;19;20056;-67
2022/09/04 04:05:28;;;;;;;6.97;2.60;;;17.40;54.30;;;;;;9183308;19;20018;-68
2022/09/04 04:08:59;;;;;;;8.75;2.45;;;17.40;54.30;;;;;;9183144;19;20010;-69
2022/09/04 04:12:24;;;;;;;5.47;1.98;;;17.40;54.50;;;;;;9182095;19;20017;-69
2022/09/04 04:15:50;;;;;;;3.67;2.25;;;17.30;54.40;;;;;;9180465;19;20021;-70
2022/09/04 04:19:26;;;;;;;2.72;1.75;;;17.30;54.50;;;;;;9182667;19;20019;-67
2022/09/04 04:22:55;;;;;;;9.80;2.53;;;17.20;54.60;;;;;;9181216;19;20019;-69
2022/09/04 04:26:11;;;;;;;8.18;2.45;;;17.20;54.50;;;;;;9181870;19;20038;-69
2022/09/04 04:29:29;;;;;;;3.38;2.08;;;17.20;54.60;;;;;;9181286;19;20048;-68
2022/09/04 04:32:49;;;;;;;8.02;2.28;;;17.20;54.60;;;;;;9181210;19;20015;-67
2022/09/04 04:36:02;;;;;;;5.78;2.20;;;17.10;54.70;;;;;;9180999;19;20025;-69
2022/09/04 04:39:20;;;;;;;2.63;2.33;;;17.10;54.60;;;;;;9181385;19;20022;-67
2022/09/04 04:42:40;;;;;;;3.78;2.53;;;17.10;54.80;;;;;;9181262;19;20064;-68
2022/09/04 04:45:53;;;;;;;5.47;2.03;;;17.10;54.80;;;;;;9181189;19;20014;-68
2022/09/04 04:49:21;;;;;;;4.05;2.17;;;17.10;54.80;;;;;;9181114;19;20018;-80
2022/09/04 04:52:38;;;;;;;4.35;2.50;;;17.00;54.90;;;;;;9180767;19;20018;-68
2022/09/04 04:55:52;;;;;;;6.25;2.10;;;17.00;54.90;;;;;;9180368;19;20018;-67
2022/09/04 04:59:19;;;;;;;4.10;2.30;;;16.90;54.90;;;;;;9180994;19;20010;-69
2022/09/04 05:02:30;;;;;;;8.20;2.20;;;16.90;55.00;;;;;;9179837;19;20007;-68
2022/09/04 05:05:57;;;;;;;5.50;2.03;;;16.90;55.00;;;;;;9180335;19;20021;-70
2022/09/04 05:09:10;;;;;;;4.13;2.28;;;16.90;55.30;;;;;;9181039;19;20019;-67
2022/09/04 05:12:27;;;;;;;4.50;2.23;;;16.90;55.10;;;;;;9179162;19;20353;-69
2022/09/04 05:15:44;;;;;;;3.25;2.10;;;16.90;55.20;;;;;;9179159;19;20052;-68
2022/09/04 05:19:16;;;;;;;10.00;2.35;;;16.80;55.30;;;;;;9179558;19;20045;-67
2022/09/04 05:22:29;;;;;;;2.63;2.10;;;16.80;55.20;;;;;;9179203;19;20011;-69
2022/09/04 05:25:45;;;;;;;3.10;2.15;;;16.80;55.30;;;;;;9180769;19;20018;-70
2022/09/04 05:28:59;;;;;;;6.25;2.20;;;16.70;55.30;;;;;;9179747;19;20007;-69
2022/09/04 05:32:17;;;;;;;3.63;2.43;;;16.70;55.40;;;;;;9180154;19;20010;-67
2022/09/04 05:35:33;;;;;;;3.67;2.45;;;16.70;55.60;;;;;;9180395;19;20023;-68
2022/09/04 05:38:48;;;;;;;3.83;2.30;;;16.70;55.60;;;;;;9176155;19;20019;-69
2022/09/04 05:42:03;;;;;;;3.83;2.20;;;16.70;55.70;;;;;;9175175;19;20014;-68
2022/09/04 05:45:22;;;;;;;4.20;2.15;;;16.70;55.70;;;;;;9179088;19;20014;-69
2022/09/04 05:48:35;;;;;;;4.72;2.95;;;16.70;55.80;;;;;;9179362;19;20021;-69
2022/09/04 05:52:01;;;;;;;4.88;2.20;;;16.70;55.80;;;;;;9179442;19;20471;-68
2022/09/04 05:55:31;;;;;;;9.18;2.30;;;16.70;55.90;;;;;;9178622;19;20025;-69
2022/09/04 05:58:49;;;;;;;3.30;2.10;;;16.70;56.00;;;;;;9177944;19;20511;-70
2022/09/04 06:02:12;;;;;;;5.18;2.83;;;16.70;55.90;;;;;;9176729;19;20456;-68
2022/09/04 06:05:28;;;;;;;6.30;2.75;;;16.70;56.10;;;;;;9178855;19;20475;-70
2022/09/04 06:08:48;;;;;;;5.88;2.50;;;16.80;56.20;;;;;;9175540;19;20360;-68
2022/09/04 06:12:19;;;;;;;4.97;2.08;;;16.80;56.20;;;;;;9178620;19;20464;-69
2022/09/04 06:15:35;;;;;;;6.80;2.75;;;16.80;56.40;;;;;;9184361;19;20650;-69
2022/09/04 06:18:59;;;;;;;6.10;2.17;;;16.90;56.40;;;;;;9186102;19;20053;-68
2022/09/04 06:22:19;;;;;;;;;;;16.90;56.50;;;;;;9184654;19;20014;-68
2022/09/04 06:25:59;;;;;;;2.92;2.05;;;17.00;56.20;;;;;;9187207;19;20301;-69
2022/09/04 06:29:16;;;;;;;6.25;2.15;;;17.00;56.30;;;;;;9187041;19;20390;-68
2022/09/04 06:32:50;;;;;;;3.92;2.28;;;17.10;56.30;;;;;;9186046;19;20030;-68
2022/09/04 06:36:26;;;;;;;5.95;2.83;;;17.20;56.50;;;;;;9184555;19;20018;-68
2022/09/04 06:39:57;;;;;;;3.47;2.40;;;17.30;56.60;;;;;;9182060;19;20019;-68
2022/09/04 06:43:17;;;;;;;7.45;3.17;;;17.30;56.60;;;;;;9183397;19;20048;-69
2022/09/04 06:46:26;;;;;;;6.10;2.80;;;17.40;56.60;;;;;;9184532;19;20052;-69
2022/09/04 06:49:45;;;;;;;6.60;2.45;;;17.50;56.50;;;;;;9185638;19;20026;-68
2022/09/04 06:53:08;;;;;;;3.65;2.63;;;17.60;56.70;;;;;;9185090;19;20018;-68
2022/09/04 06:56:32;;;;;;;4.53;2.45;;;17.70;56.70;;;;;;9185341;19;20014;-69
2022/09/04 07:00:01;;;;;;;2.95;2.35;;;17.80;56.70;;;;;;9185890;19;20050;-69
2022/09/04 07:03:21;;;;;;;4.32;2.40;;;18.00;56.80;;;;;;9183904;19;20014;-69
2022/09/04 07:06:31;;;;;;;3.67;2.50;;;18.00;56.70;;;;;;9182175;19;20015;-69
2022/09/04 07:09:42;;;;;;;3.90;2.28;;;18.20;56.70;;;;;;9185116;19;20022;-70
2022/09/04 07:13:20;;;;;;;6.15;2.65;;;18.30;56.70;;;;;;9184404;19;20022;-69
2022/09/04 07:16:39;;;;;;;8.13;3.05;;;18.40;56.90;;;;;;9182263;19;20447;-70
2022/09/04 07:20:08;;;;;;;5.80;2.47;;;18.60;56.90;;;;;;9182869;19;20014;-68
2022/09/04 07:23:30;;;;;;;4.43;2.40;;;18.70;57.00;;;;;;9183614;19;20352;-69
2022/09/04 07:26:46;;;;;;;5.88;2.80;;;18.90;56.90;;;;;;9183501;19;20026;-69
2022/09/04 07:29:55;;;;;;;5.18;2.55;;;19.10;56.70;;;;;;9176837;19;20018;-68
2022/09/04 07:33:11;;;;;;;5.97;2.35;;;19.30;56.70;;;;;;9172585;19;20380;-67
2022/09/04 07:36:24;;;;;;;4.63;2.88;;;19.40;56.70;;;;;;9167418;19;20010;-69
2022/09/04 07:39:41;;;;;;;4.78;2.80;;;19.60;56.70;;;;;;9169902;19;20014;-68
2022/09/04 07:42:50;;;;;;;5.03;2.50;;;19.70;56.70;;;;;;9169330;19;20023;-70
2022/09/04 07:46:04;;;;;;;5.00;2.40;;;19.90;56.70;;;;;;9169997;19;20022;-70
2022/09/04 07:49:21;;;;;;;10.93;3.08;;;20.00;56.80;;;;;;9170238;19;20056;-70
2022/09/04 07:52:43;;;;;;;7.15;2.78;;;20.20;56.80;;;;;;9171553;19;20460;-69
2022/09/04 07:55:50;;;;;;;6.00;3.00;;;20.30;56.80;;;;;;9170275;19;20026;-70
2022/09/04 07:59:12;;;;;;;6.72;3.08;;;20.40;56.80;;;;;;9173379;19;20028;-70
2022/09/04 08:02:37;;;;;;;8.05;2.65;;;20.60;57.00;;;;;;9174098;19;20014;-70
2022/09/04 08:05:50;;;;;;;6.03;2.83;;;20.70;57.10;;;;;;9176035;19;20018;-69
2022/09/04 08:09:34;;;;;;;8.27;3.45;;;20.90;57.10;;;;;;9176023;19;20018;-68
2022/09/04 08:13:08;;;;;;;5.70;3.42;;;21.00;57.30;;;;;;9172086;19;20368;-69
2022/09/04 08:16:27;;;;;;;6.35;2.88;;;21.20;57.30;;;;;;9175274;19;20526;-69
2022/09/04 08:19:43;;;;;;;5.72;2.72;;;21.30;57.20;;;;;;9176655;19;20368;-69
2022/09/04 08:22:59;;;;;;;5.82;3.30;;;21.50;57.20;;;;;;9173493;19;20052;-70
2022/09/04 08:26:15;;;;;;;5.13;2.58;;;21.70;57.20;;;;;;9175270;19;20038;-71
2022/09/04 08:29:38;;;;;;;7.28;3.83;;;21.90;57.20;;;;;;9175317;19;20352;-71
2022/09/04 08:33:01;;;;;;;6.28;3.70;;;22.10;57.20;;;;;;9175228;19;20022;-69
2022/09/04 08:36:17;;;;;;;7.20;3.58;;;22.40;57.10;;;;;;9170837;19;20018;-70
2022/09/04 08:39:38;;;;;;;6.78;3.10;;;22.60;56.90;;;;;;9176864;19;20022;-70
2022/09/04 08:43:14;;;;;;;5.97;2.90;;;22.80;57.00;;;;;;9180266;19;20029;-71
2022/09/04 08:46:58;;;;;;;9.15;3.70;;;23.10;56.90;;;;;;9180480;19;20358;-70
2022/09/04 08:50:35;;;;;;;4.97;3.30;;;23.40;56.80;;;;;;9176102;19;20018;-71
2022/09/04 08:54:15;;;;;;;5.72;2.80;;;23.70;56.60;;;;;;9179694;19;20034;-71
2022/09/04 08:57:50;;;;;;;5.20;2.80;;;24.00;56.50;;;;;;9177376;19;20030;-71
2022/09/04 09:01:17;;;;;;;3.17;2.70;;;24.20;56.30;;;;;;9180328;19;20025;-70
2022/09/04 09:04:48;;;;;;;4.72;2.85;;;24.50;56.10;;;;;;9181297;19;20018;-69
2022/09/04 09:08:23;;;;;;;5.28;2.70;;;24.80;55.90;;;;;;9180137;19;20038;-69
2022/09/04 09:12:03;;;;;;;2.20;2.00;;;25.20;55.70;;;;;;9179443;19;20097;-69
2022/09/04 09:15:41;;;;;;;5.22;2.40;;;25.40;55.50;;;;;;9178854;19;20586;-70
2022/09/04 09:19:11;;;;;;;5.43;2.30;;;25.70;55.30;;;;;;9180480;19;20010;-72
2022/09/04 09:22:39;;;;;;;3.47;2.33;;;26.00;55.10;;;;;;9179664;19;20042;-71
2022/09/04 09:25:54;;;;;;;6.75;2.63;;;26.30;54.80;;;;;;9178791;19;20017;-71
2022/09/04 09:29:26;;;;;;;3.80;2.33;;;26.50;54.80;;;;;;9179700;19;20022;-70
2022/09/04 09:33:09;;;;;;;3.17;2.20;;;26.70;54.50;;;;;;9177231;19;20353;-66
2022/09/04 09:36:36;;;;;;;5.70;2.10;;;26.90;54.30;;;;;;9172001;19;20044;-70
2022/09/04 09:40:04;;;;;;;5.97;2.20;;;27.10;54.10;;;;;;9177014;19;20014;-72
2022/09/04 09:43:41;;;;;;;3.35;1.95;;;27.30;54.00;;;;;;9176177;19;20027;-67
2022/09/04 09:47:29;;;;;;;4.38;2.28;;;27.50;53.80;;;;;;9173662;19;20011;-68
2022/09/04 09:51:18;;;;;;;6.07;2.28;;;27.60;53.50;;;;;;9184866;19;20613;-69
2022/09/04 09:54:56;;;;;;;2.42;1.70;;;27.80;53.30;;;;;;9185258;19;20003;-69
2022/09/04 09:58:32;;;;;;;4.80;2.20;;;28.00;53.20;;;;;;9187393;19;20018;-69
2022/09/04 10:02:04;;;;;;;3.88;2.35;;;28.20;53.10;;;;;;9185449;19;20030;-68
2022/09/04 10:05:52;;;;;;;7.53;1.80;;;28.30;52.80;;;;;;9186144;19;20007;-70
2022/09/04 10:09:30;;;;;;;2.90;1.90;;;28.50;52.70;;;;;;9183883;19;20025;-68
2022/09/04 10:13:04;;;;;;;5.50;1.85;;;28.60;52.40;;;;;;9186285;19;20018;-69
2022/09/04 10:16:28;;;;;;;6.72;2.00;;;28.70;52.20;;;;;;9183684;19;20368;-69
2022/09/04 10:20:00;;;;;;;4.40;1.95;;;28.80;52.20;;;;;;9183747;19;20023;-70
2022/09/04 10:23:34;;;;;;;1.95;1.52;;;29.00;52.10;;;;;;9182684;19;20026;-71
2022/09/04 10:27:05;;;;;;;3.40;1.83;;;29.10;51.90;;;;;;9183493;19;20015;-70
2022/09/04 10:30:17;;;;;;;2.42;1.85;;;29.30;51.80;;;;;;9184968;19;20052;-67
2022/09/04 10:33:31;;;;;;;1.55;1.38;;;29.40;51.70;;;;;;9185829;19;20054;-69
2022/09/04 10:36:45;;;;;;;3.22;1.80;;;29.60;51.50;;;;;;9180666;19;20014;-70
2022/09/04 10:43:51;;;;;;;4.68;1.90;;;29.80;51.00;;;;;;9183748;19;20467;-68
2022/09/04 10:47:10;;;;;;;2.85;1.55;;;29.90;50.90;;;;;;9184608;19;20007;-72
2022/09/04 10:50:27;;;;;;;3.15;1.40;;;30.00;50.80;;;;;;9182146;19;20014;-71
2022/09/04 10:54:04;;;;;;;2.70;1.75;;;30.10;50.80;;;;;;9185166;19;20049;-71
2022/09/04 10:57:26;;;;;;;2.88;1.60;;;30.20;50.60;;;;;;9183314;19;20014;-70
2022/09/04 11:00:48;;;;;;;3.13;1.30;;;30.30;50.50;;;;;;9180330;19;20167;-69
2022/09/04 11:04:30;;;;;;;3.28;1.65;;;30.40;50.50;;;;;;9181133;19;20015;-68
2022/09/04 11:08:08;;;;;;;2.00;1.40;;;30.50;50.30;;;;;;9182323;19;20018;-67
2022/09/04 11:11:32;;;;;;;6.05;1.60;;;30.50;50.10;;;;;;9182873;19;20014;-71
2022/09/04 11:15:05;;;;;;;2.45;1.73;;;30.60;50.00;;;;;;9184393;19;20014;-72
2022/09/04 11:18:39;;;;;;;1.85;1.25;;;30.70;49.90;;;;;;9182844;19;20026;-70
2022/09/04 11:22:11;;;;;;;4.65;1.80;;;30.80;49.70;;;;;;9182561;19;20364;-71
2022/09/04 11:25:52;;;;;;;2.85;1.75;;;30.80;49.40;;;;;;9181399;19;20014;-71
2022/09/04 11:29:18;;;;;;;3.25;1.90;;;30.80;49.40;;;;;;9181958;19;20022;-72
2022/09/04 11:32:52;;;;;;;8.95;1.73;;;30.80;49.40;;;;;;9182666;19;20011;-73
2022/09/04 11:36:35;;;;;;;2.85;1.58;;;30.80;49.40;;;;;;9178187;19;20475;-68
2022/09/04 11:40:12;;;;;;;9.05;2.60;;;30.80;49.30;;;;;;9176890;19;20022;-71
2022/09/04 11:43:35;;;;;;;2.72;1.70;;;30.90;49.20;;;;;;9182449;19;20021;-72
2022/09/04 11:47:02;;;;;;;1.77;1.20;;;30.90;49.00;;;;;;9181581;19;20753;-73
2022/09/04 11:50:30;;;;;;;4.45;1.95;;;31.00;49.00;;;;;;9174797;19;20052;-72
2022/09/04 11:53:54;;;;;;;2.22;1.55;;;31.10;49.00;;;;;;9176203;19;20349;-72
2022/09/04 11:57:14;;;;;;;3.17;1.63;;;31.20;48.80;;;;;;9174805;19;20015;-73
2022/09/04 12:00:21;;;;;;;1.88;1.58;;;31.20;48.60;;;;;;9176143;19;20029;-72
2022/09/04 12:03:48;;;;;;;3.08;1.85;;;31.30;48.70;;;;;;9168759;19;20033;-72
2022/09/04 12:07:12;;;;;;;2.63;1.60;;;31.30;48.30;;;;;;9173217;19;20056;-72
2022/09/04 12:10:32;;;;;;;;;;;31.40;48.40;;;;;;9174830;19;20025;-70
2022/09/04 12:14:07;;;;;;;3.63;1.55;;;31.50;48.70;;;;;;9172948;19;19922;-74
2022/09/04 12:17:34;;;;;;;6.82;1.55;;;31.50;48.20;;;;;;9173343;19;20704;-70
2022/09/04 12:21:06;;;;;;;2.13;1.80;;;31.60;48.00;;;;;;9173865;19;20017;-73
2022/09/04 12:24:35;;;;;;;3.40;1.80;;;31.70;47.90;;;;;;9173453;19;20350;-74
2022/09/04 12:28:09;;;;;;;3.97;2.10;;;31.70;47.70;;;;;;9173020;19;20010;-74
2022/09/04 12:31:33;;;;;;;3.00;2.10;;;31.80;47.60;;;;;;9173506;19;20018;-70
2022/09/04 12:34:58;;;;;;;3.25;1.80;;;31.80;47.60;;;;;;9173585;19;20526;-71
2022/09/04 12:38:31;;;;;;;2.95;2.10;;;31.90;47.30;;;;;;9168559;19;20018;-71
2022/09/04 12:41:43;;;;;;;2.90;2.10;;;31.90;47.00;;;;;;9169607;19;20014;-71
2022/09/04 12:45:04;;;;;;;4.85;2.38;;;32.00;47.10;;;;;;9172034;19;20022;-70
2022/09/04 12:48:18;;;;;;;6.50;2.85;;;32.00;46.90;;;;;;9167236;19;20441;-70
2022/09/04 12:51:29;;;;;;;2.63;2.03;;;32.00;46.70;;;;;;9167521;19;20022;-72
2022/09/04 12:54:39;;;;;;;3.97;2.25;;;32.00;46.70;;;;;;9160003;19;20471;-67
2022/09/04 12:57:55;;;;;;;4.38;2.30;;;32.00;46.50;;;;;;9163827;19;20026;-68
2022/09/04 13:01:14;;;;;;;7.38;2.30;;;32.00;46.30;;;;;;9157113;19;20022;-70
2022/09/04 13:04:23;;;;;;;5.10;2.00;;;32.00;46.20;;;;;;9158978;19;20107;-70
2022/09/04 13:07:46;;;;;;;5.72;2.20;;;32.00;46.30;;;;;;9165625;19;20014;-72
2022/09/04 13:11:06;;;;;;;2.97;1.83;;;32.00;46.10;;;;;;9167626;19;20372;-68
2022/09/04 13:14:38;;;;;;;3.42;1.80;;;31.90;46.00;;;;;;9165508;19;20018;-69
2022/09/04 13:17:51;;;;;;;5.50;1.63;;;31.90;45.80;;;;;;9168067;19;20049;-70
2022/09/04 13:21:05;;;;;;;17.13;2.13;;;31.90;45.90;;;;;;9165482;19;20018;-73
2022/09/04 13:24:30;;;;;;;2.10;1.67;;;31.90;45.90;;;;;;9175790;19;20014;-69
2022/09/04 13:27:48;;;;;;;4.93;1.70;;;31.90;45.70;;;;;;9182388;19;20018;-69
2022/09/04 13:31:02;;;;;;;2.00;1.60;;;31.90;45.70;;;;;;9181156;19;20019;-71
2022/09/04 13:34:14;;;;;;;4.10;2.08;;;31.90;45.70;;;;;;9179789;19;20018;-70
2022/09/04 13:37:26;;;;;;;3.05;2.35;;;31.90;45.50;;;;;;9175310;19;20029;-71
2022/09/04 13:40:53;;;;;;;3.00;2.03;;;31.90;45.50;;;;;;9179121;19;20015;-69
2022/09/04 13:44:19;;;;;;;3.17;1.90;;;31.90;45.30;;;;;;9176163;19;20015;-69
2022/09/04 13:47:28;;;;;;;5.05;1.85;;;31.80;45.30;;;;;;9178344;19;20018;-69
2022/09/04 13:50:43;;;;;;;2.50;1.58;;;31.80;45.60;;;;;;9180077;19;20011;-70
2022/09/04 13:54:01;;;;;;;2.85;1.92;;;31.60;45.40;;;;;;9179722;19;20026;-70
2022/09/04 13:57:16;;;;;;;2.75;1.80;;;31.60;45.30;;;;;;9180558;19;20110;-71
2022/09/04 14:00:21;;;;;;;6.70;2.10;;;31.40;45.30;;;;;;9181344;19;20050;-69
2022/09/04 14:03:34;;;;;;;2.42;1.92;;;31.30;45.50;;;;;;9178869;19;20025;-73
2022/09/04 14:06:40;;;;;;;3.70;2.27;;;31.30;45.50;;;;;;9179273;19;20019;-72
2022/09/04 14:09:49;;;;;;;5.40;1.85;;;31.20;45.60;;;;;;9179021;19;20384;-70
2022/09/04 14:13:21;;;;;;;2.58;1.50;;;31.10;45.60;;;;;;9179975;19;20018;-69
2022/09/04 14:16:28;;;;;;;7.05;2.38;;;31.00;45.50;;;;;;9177935;19;20022;-68
2022/09/04 14:19:47;;;;;;;2.50;2.00;;;30.90;45.60;;;;;;9179477;19;20017;-68
2022/09/04 14:23:02;;;;;;;3.00;1.73;;;30.90;45.50;;;;;;9180205;19;21148;-67
2022/09/04 14:26:18;;;;;;;9.10;2.20;;;30.80;45.60;;;;;;9172520;19;20029;-69
2022/09/04 14:29:36;;;;;;;2.65;1.80;;;30.70;45.60;;;;;;9179733;19;20587;-67
2022/09/04 14:32:53;;;;;;;6.13;2.63;;;30.70;45.70;;;;;;9178252;19;20014;-68
2022/09/04 14:36:13;;;;;;;2.35;1.95;;;30.60;45.70;;;;;;9173510;19;20553;-69
2022/09/04 14:39:23;;;;;;;3.45;2.03;;;30.60;45.80;;;;;;9177573;19;20053;-70
2022/09/04 14:42:43;;;;;;;4.68;1.88;;;30.60;45.80;;;;;;9179034;19;20014;-70
2022/09/04 14:46:03;;;;;;;2.63;1.77;;;30.50;45.70;;;;;;9173871;19;20014;-70
2022/09/04 14:49:12;;;;;;;2.00;1.80;;;30.50;45.80;;;;;;9178348;19;20026;-68
2022/09/04 14:52:20;;;;;;;7.00;1.80;;;30.50;45.90;;;;;;9178102;19;20025;-67
2022/09/04 14:55:28;;;;;;;3.45;2.00;;;30.50;45.80;;;;;;9177047;19;20014;-69
2022/09/04 14:58:37;;;;;;;3.38;2.20;;;30.40;45.80;;;;;;9178379;19;20014;-68
2022/09/04 15:02:07;;;;;;;2.83;1.75;;;30.40;45.90;;;;;;9176440;19;20649;-69
2022/09/04 15:05:22;;;;;;;4.63;2.20;;;30.30;45.70;;;;;;9174797;19;20014;-69
2022/09/04 15:08:30;;;;;;;4.05;2.45;;;30.30;45.80;;;;;;9175329;19;20022;-68
2022/09/04 15:11:41;;;;;;;4.57;2.17;;;30.30;45.90;;;;;;9175641;19;20023;-70
2022/09/04 15:14:49;;;;;;;3.97;1.80;;;30.20;45.90;;;;;;9174305;19;20018;-70
2022/09/04 15:18:04;;;;;;;4.00;2.00;;;30.10;45.90;;;;;;9174677;19;20884;-72
2022/09/04 15:21:19;;;;;;;2.83;2.00;;;30.10;45.90;;;;;;9173787;19;20018;-69
2022/09/04 15:24:29;;;;;;;4.70;2.20;;;30.00;45.90;;;;;;9176837;19;20042;-68
2022/09/04 15:27:44;;;;;;;6.40;2.30;;;29.90;45.90;;;;;;9177321;19;20484;-71
2022/09/04 15:31:05;;;;;;;2.50;1.65;;;29.90;45.90;;;;;;9175611;19;20055;-72
2022/09/04 15:34:22;;;;;;;4.10;2.17;;;29.80;45.90;;;;;;9177236;19;20488;-71
2022/09/04 15:37:29;;;;;;;3.60;1.92;;;29.80;46.00;;;;;;9172155;19;20502;-71
2022/09/04 15:40:38;;;;;;;2.67;2.08;;;29.70;46.10;;;;;;9169986;19;20025;-72
2022/09/04 15:44:19;;;;;;;3.58;2.03;;;29.70;46.10;;;;;;9176924;19;20943;-70
2022/09/04 15:47:40;;;;;;;2.92;2.03;;;29.60;46.20;;;;;;9175533;19;20007;-70
2022/09/04 15:51:02;;;;;;;4.68;1.92;;;29.50;46.20;;;;;;9173715;19;20022;-70
2022/09/04 15:54:29;;;;;;;2.95;2.00;;;29.50;46.20;;;;;;9173126;19;20022;-71
2022/09/04 15:57:45;;;;;;;4.13;1.90;;;29.50;46.40;;;;;;9176582;19;20026;-73
2022/09/04 16:01:15;;;;;;;2.45;1.90;;;29.50;46.50;;;;;;9175513;19;20007;-70
2022/09/04 16:04:27;;;;;;;2.60;1.88;;;29.40;46.50;;;;;;9175058;19;20018;-71
2022/09/04 16:07:45;;;;;;;3.42;2.30;;;29.40;46.60;;;;;;9173585;19;20017;-70
2022/09/04 16:11:00;;;;;;;32.50;8.88;;;29.40;46.60;;;;;;9173538;19;20021;-71
2022/09/04 16:14:08;;;;;;;8.98;3.70;;;29.30;46.60;;;;;;9172842;19;20060;-72
2022/09/04 16:17:18;;;;;;;3.92;2.08;;;29.30;46.70;;;;;;9175272;19;20014;-72
2022/09/04 16:20:32;;;;;;;4.28;2.20;;;29.30;46.70;;;;;;9173299;19;20014;-70
2022/09/04 16:23:41;;;;;;;3.95;2.10;;;29.20;46.70;;;;;;9175070;19;20501;-72
2022/09/04 16:26:50;;;;;;;4.85;2.42;;;29.20;46.70;;;;;;9172316;19;20018;-72
2022/09/04 16:30:00;;;;;;;5.38;2.53;;;29.20;46.90;;;;;;9172515;19;20115;-71
2022/09/04 16:33:06;;;;;;;3.55;2.53;;;29.10;46.90;;;;;;9173038;19;20018;-72
2022/09/04 16:36:38;;;;;;;4.93;2.58;;;29.10;46.90;;;;;;9169350;19;20039;-72
2022/09/04 16:39:57;;;;;;;6.13;2.13;;;29.00;47.00;;;;;;9173300;19;20025;-72
2022/09/04 16:43:14;;;;;;;4.68;2.20;;;28.90;47.10;;;;;;9173068;19;20022;-72
2022/09/04 16:46:30;;;;;;;4.68;2.58;;;28.90;47.10;;;;;;9171111;19;20018;-72
2022/09/04 16:49:46;;;;;;;2.83;1.90;;;28.90;47.20;;;;;;9172296;19;20018;-73
2022/09/04 16:53:06;;;;;;;4.95;2.50;;;28.80;47.20;;;;;;9173433;19;20014;-72
2022/09/04 16:56:33;;;;;;;4.85;2.60;;;28.80;47.30;;;;;;9170610;19;20029;-72
2022/09/04 16:59:44;;;;;;;3.55;2.50;;;28.70;47.30;;;;;;9172479;19;20421;-71
2022/09/04 17:02:56;;;;;;;2.72;2.45;;;28.70;47.40;;;;;;9172619;19;20025;-72
2022/09/04 17:06:07;;;;;;;7.53;2.40;;;28.60;47.40;;;;;;9172435;19;20033;-73
2022/09/04 17:09:21;;;;;;;10.15;2.75;;;28.60;47.50;;;;;;9173323;19;20017;-70
2022/09/04 17:12:46;;;;;;;7.60;3.67;;;28.50;47.70;;;;;;9171978;19;20601;-69
2022/09/04 17:15:57;;;;;;;8.02;3.85;;;28.50;48.40;;;;;;9177576;19;20399;-69
2022/09/04 17:19:02;;;;;;;13.98;4.78;;;28.40;48.60;;;;;;9179054;19;20018;-70
2022/09/04 17:22:33;;;;;;;6.57;3.13;;;28.40;49.00;;;;;;9178322;19;20487;-69
2022/09/04 17:26:05;;;;;;;4.65;2.90;;;28.40;49.30;;;;;;9177758;19;20020;-69